Time;durP1;ratioP1;P1;durP2;ratioP2;P2;SDS_P1;SDS_P2;PMS_P1;PMS_P2;Temp;Humidity;BMP_temperature;BMP_pressure;BME280_temperature;BME280_humidity;BME280_pressure;Samples;Min_cycle;Max_cycle;Signal;HPM_P1;HPM_P2
2021/06/13 00:00:30;;;;;;;18.77;13.37;;;;;;;21.06;64.67;98767.91;3386596;29;20063;-74
2021/06/13 00:02:11;;;;;;;19.20;12.13;;;;;;;21.06;64.53;98770.63;3410714;29;20043;-72
2021/06/13 00:03:51;;;;;;;18.98;13.93;;;;;;;21.03;64.46;98768.50;3415330;29;20051;-72
2021/06/13 00:05:32;;;;;;;21.07;13.07;;;;;;;21.05;64.61;98771.75;3400475;29;20043;-72
2021/06/13 00:07:13;;;;;;;17.13;12.10;;;;;;;21.03;64.72;98766.59;3411252;29;20051;-71
2021/06/13 00:08:54;;;;;;;19.33;13.13;;;;;;;21.01;64.48;98767.97;3414878;29;20070;-72
2021/06/13 00:10:35;;;;;;;16.75;12.95;;;;;;;21.02;64.44;98772.31;3413675;29;20391;-71
2021/06/13 00:12:16;;;;;;;20.67;13.90;;;;;;;20.97;64.38;98759.63;3414651;29;20098;-71
2021/06/13 00:13:57;;;;;;;19.93;13.93;;;;;;;20.99;64.66;98765.56;3414258;29;20051;-72
2021/06/13 00:15:38;;;;;;;24.40;13.47;;;;;;;20.96;64.86;98768.03;3414257;29;20078;-75
2021/06/13 00:17:18;;;;;;;34.23;22.80;;;;;;;20.98;64.78;98772.06;3400598;29;20055;-71
2021/06/13 00:18:59;;;;;;;28.90;20.67;;;;;;;20.97;64.77;98766.94;3398109;29;20071;-72
2021/06/13 00:20:40;;;;;;;41.23;27.87;;;;;;;20.95;64.85;98766.41;3412146;29;20138;-73
2021/06/13 00:22:21;;;;;;;42.80;29.17;;;;;;;20.95;64.90;98766.41;3414844;29;20290;-73
2021/06/13 00:24:03;;;;;;;46.80;32.57;;;;;;;20.95;64.70;98761.00;3399989;29;20040;-73
2021/06/13 00:25:44;;;;;;;46.88;34.15;;;;;;;20.95;64.75;98763.72;3411884;29;20413;-72
2021/06/13 00:27:25;;;;;;;53.63;34.08;;;;;;;20.94;64.71;98764.81;3414539;29;20050;-72
2021/06/13 00:29:05;;;;;;;47.27;31.27;;;;;;;20.92;64.89;98760.47;3400317;29;20051;-72
2021/06/13 00:30:46;;;;;;;42.50;27.67;;;;;;;20.92;64.63;98762.38;3411819;29;20125;-71
2021/06/13 00:32:39;;;;;;;39.08;27.77;;;;;;;20.90;64.64;98762.66;3535162;27;20139;-72
2021/06/13 00:34:21;;;;;;;33.53;24.00;;;;;;;20.93;64.78;98769.41;3509653;28;20040;-72
2021/06/13 00:36:02;;;;;;;31.95;23.55;;;;;;;20.92;64.51;98771.31;3504850;28;20527;-70
2021/06/13 00:37:43;;;;;;;37.88;23.67;;;;;;;20.90;64.73;98770.78;3507041;28;20461;-71
2021/06/13 00:39:25;;;;;;;36.38;21.52;;;;;;;20.91;64.71;98764.28;3508172;28;20044;-71
2021/06/13 00:41:08;;;;;;;26.90;20.77;;;;;;;20.90;64.70;98770.78;3508305;28;20491;-74
2021/06/13 00:42:49;;;;;;;26.40;20.65;;;;;;;20.89;64.62;98769.16;3508035;28;20037;-71
2021/06/13 00:44:30;;;;;;;27.90;19.30;;;;;;;20.90;64.62;98770.78;3507859;28;20407;-72
2021/06/13 00:46:11;;;;;;;25.57;18.20;;;;;;;20.87;64.88;98765.13;3507293;28;20047;-72
2021/06/13 00:47:51;;;;;;;26.13;17.53;;;;;;;20.89;64.83;98769.16;3503840;28;20055;-71
2021/06/13 00:49:32;;;;;;;22.30;16.92;;;;;;;20.86;64.56;98761.63;3504111;28;20082;-72
2021/06/13 00:51:13;;;;;;;24.20;19.40;;;;;;;20.89;64.54;98771.88;3504144;28;20054;-72
2021/06/13 00:52:56;;;;;;;28.25;20.55;;;;;;;20.87;64.64;98776.78;3504388;28;20040;-72
2021/06/13 00:54:37;;;;;;;29.20;24.80;;;;;;;20.88;64.55;98772.16;3504165;28;20424;-73
2021/06/13 00:56:18;;;;;;;35.77;26.27;;;;;;;20.89;64.76;98766.47;3504373;28;20043;-73
2021/06/13 00:58:03;;;;;;;38.20;26.95;;;;;;;20.90;64.89;98770.78;3504125;28;20044;-72
2021/06/13 00:59:44;;;;;;;32.95;24.90;;;;;;;20.90;64.89;98769.97;3507844;28;20513;-71
2021/06/13 01:01:26;;;;;;;34.47;24.65;;;;;;;20.90;64.70;98775.38;3506923;28;20044;-72
2021/06/13 01:03:07;;;;;;;28.27;22.83;;;;;;;20.90;64.78;98787.03;3504440;28;20101;-72
2021/06/13 01:04:49;;;;;;;;;;;;;;;20.92;64.93;98778.63;3504963;28;20612;-72
2021/06/13 01:06:54;;;;;;;24.77;19.38;;;;;;;20.90;64.98;98780.81;3507961;28;19912;-72
2021/06/13 01:08:45;;;;;;;23.92;20.00;;;;;;;20.87;65.31;98775.97;3492351;28;20041;-71
2021/06/13 01:10:50;;;;;;;26.75;19.40;;;;;;;20.87;65.23;98784.91;3503893;28;20037;-73
2021/06/13 01:12:43;;;;;;;23.40;17.58;;;;;;;20.86;65.25;98777.88;3507232;28;20048;-71
2021/06/13 01:15:01;;;;;;;25.10;17.95;;;;;;;20.87;65.18;98786.81;3506845;28;20094;-71
2021/06/13 01:16:48;;;;;;;22.48;17.35;;;;;;;20.84;65.16;98781.97;3506651;28;20047;-72
2021/06/13 01:19:05;;;;;;;21.17;17.25;;;;;;;20.85;65.52;98773.53;3492721;28;20041;-72
2021/06/13 01:20:57;;;;;;;22.63;14.13;;;;;;;20.85;65.78;98775.44;3506865;28;20037;-72
2021/06/13 01:22:56;;;;;;;23.63;16.65;;;;;;;20.84;65.46;98771.94;3491533;28;20041;-71
2021/06/13 01:25:21;;;;;;;28.50;15.40;;;;;;;20.84;65.38;98771.13;3505457;28;20036;-72
2021/06/13 01:27:29;;;;;;;21.58;14.93;;;;;;;20.84;65.53;98776.53;3501120;28;20044;-71
2021/06/13 01:29:12;;;;;;;19.60;14.65;;;;;;;20.80;65.54;98784.41;3499680;28;20083;-73
2021/06/13 01:30:59;;;;;;;24.95;13.75;;;;;;;20.80;65.81;98776.28;3504705;28;20048;-72
2021/06/13 01:32:40;;;;;;;19.75;14.02;;;;;;;20.80;65.38;98779.00;3490091;28;20044;-71
2021/06/13 01:34:46;;;;;;;21.00;13.33;;;;;;;20.82;65.37;98774.09;3504093;28;20047;-72
2021/06/13 01:36:35;;;;;;;21.95;13.30;;;;;;;20.80;65.29;98779.00;3506447;28;20052;-72
2021/06/13 01:38:18;;;;;;;19.70;13.75;;;;;;;20.80;65.34;98776.28;3504901;28;20051;-71
2021/06/13 01:39:59;;;;;;;;;;;;;;;20.81;65.33;98777.91;3507582;28;20048;-72
2021/06/13 01:41:42;;;;;;;19.42;13.45;;;;;;;20.79;65.63;98784.72;3492618;28;19943;-73
2021/06/13 01:43:24;;;;;;;22.17;14.00;;;;;;;20.79;65.52;98782.81;3482006;28;20076;-73
2021/06/13 01:45:10;;;;;;;22.55;14.07;;;;;;;20.78;65.24;98783.91;3478384;28;20040;-72
2021/06/13 01:46:52;;;;;;;22.42;14.32;;;;;;;20.78;65.41;98783.06;3494555;28;20075;-71
2021/06/13 01:48:36;;;;;;;18.90;13.27;;;;;;;20.79;65.61;98774.69;3483025;28;20068;-71
2021/06/13 01:50:17;;;;;;;21.50;13.45;;;;;;;20.76;65.25;98780.66;3492364;28;20411;-73
2021/06/13 01:51:59;;;;;;;22.55;14.70;;;;;;;20.81;65.32;98777.91;3463822;28;20034;-74
2021/06/13 01:53:42;;;;;;;15.88;13.48;;;;;;;20.81;65.39;98771.69;3475023;28;20135;-71
2021/06/13 01:55:27;;;;;;;18.30;13.43;;;;;;;20.82;65.48;98774.09;3493138;28;20068;-71
2021/06/13 01:57:08;;;;;;;23.65;15.77;;;;;;;20.83;65.29;98762.19;3494084;28;20051;-73
2021/06/13 01:59:05;;;;;;;20.17;13.80;;;;;;;20.84;65.41;98771.94;3495644;28;20116;-73
2021/06/13 02:00:57;;;;;;;18.25;12.90;;;;;;;20.85;65.50;98768.13;3495395;28;20164;-72
2021/06/13 02:02:43;;;;;;;17.88;13.93;;;;;;;20.86;65.44;98771.66;3480775;28;20072;-73
2021/06/13 02:04:26;;;;;;;19.15;14.18;;;;;;;20.87;65.42;98771.34;3495918;28;20128;-72
2021/06/13 02:06:12;;;;;;;19.23;12.93;;;;;;;20.89;65.49;98768.38;3498034;28;20065;-73
2021/06/13 02:07:54;;;;;;;17.65;12.52;;;;;;;20.88;65.42;98759.44;3497811;28;20075;-71
2021/06/13 02:09:37;;;;;;;18.55;13.20;;;;;;;20.88;65.36;98767.56;3482480;28;20040;-72
2021/06/13 02:11:22;;;;;;;18.30;13.65;;;;;;;20.90;65.36;98767.25;3478393;28;20044;-72
2021/06/13 02:13:05;;;;;;;18.98;12.88;;;;;;;20.92;65.47;98767.78;3478176;28;20048;-71
2021/06/13 02:14:47;;;;;;;17.42;13.52;;;;;;;20.94;65.47;98764.81;3492031;28;20037;-73
2021/06/13 02:16:30;;;;;;;21.30;13.70;;;;;;;20.93;65.50;98761.28;3480011;28;20186;-71
2021/06/13 02:18:11;;;;;;;18.27;13.80;;;;;;;20.94;65.31;98759.41;3491680;28;20045;-72
2021/06/13 02:19:52;;;;;;;17.85;13.20;;;;;;;20.98;65.39;98765.84;3493573;28;20097;-72
2021/06/13 02:21:36;;;;;;;14.77;12.80;;;;;;;21.00;65.43;98760.94;3496434;28;20052;-71
2021/06/13 02:23:17;;;;;;;16.45;12.60;;;;;;;21.00;65.07;98763.66;3493736;28;20503;-71
2021/06/13 02:24:58;;;;;;;20.85;12.43;;;;;;;21.00;65.07;98764.47;3497690;28;20063;-72
2021/06/13 02:26:42;;;;;;;19.63;13.07;;;;;;;21.01;65.29;98757.94;3496609;28;20131;-72
2021/06/13 02:28:23;;;;;;;;;;;;;;;21.05;64.79;98755.47;3493860;28;20140;-72
2021/06/13 02:30:07;;;;;;;21.13;11.43;;;;;;;21.02;64.76;98750.63;3493647;28;20290;-72
2021/06/13 02:31:48;;;;;;;17.88;12.88;;;;;;;21.06;64.81;98751.66;3493577;28;20131;-72
2021/06/13 02:33:30;;;;;;;17.77;13.35;;;;;;;21.09;64.74;98756.50;3493896;28;20060;-73
2021/06/13 02:35:16;;;;;;;17.45;12.32;;;;;;;21.11;64.92;98751.63;3494461;28;20083;-73
2021/06/13 02:37:02;;;;;;;15.07;12.57;;;;;;;21.12;64.66;98750.53;3480277;28;20056;-72
2021/06/13 02:38:46;;;;;;;17.38;13.30;;;;;;;21.13;64.88;98746.72;3492787;28;20064;-74
2021/06/13 02:40:28;;;;;;;18.57;12.70;;;;;;;21.17;64.73;98755.06;3497574;28;20055;-73
2021/06/13 02:42:10;;;;;;;17.42;12.88;;;;;;;21.17;64.39;98746.94;3483070;28;20553;-73
2021/06/13 02:43:57;;;;;;;17.60;11.95;;;;;;;21.19;64.59;98750.97;3494143;28;20036;-70
2021/06/13 02:45:48;;;;;;;18.60;12.60;;;;;;;21.20;64.49;98747.19;3482953;28;20069;-71
2021/06/13 02:47:29;;;;;;;19.52;12.82;;;;;;;21.22;64.55;98752.31;3499063;28;20518;-72
2021/06/13 02:49:11;;;;;;;20.88;11.95;;;;;;;21.22;64.18;98745.00;3501393;28;20044;-72
2021/06/13 02:50:53;;;;;;;17.73;12.00;;;;;;;21.24;64.17;98748.22;3494683;28;20047;-72
2021/06/13 02:52:48;;;;;;;18.23;11.68;;;;;;;21.26;64.39;98756.06;3496379;28;20045;-72
2021/06/13 02:54:31;;;;;;;15.48;12.20;;;;;;;21.25;64.43;98749.06;3480666;28;20128;-72
2021/06/13 02:56:32;;;;;;;15.25;11.73;;;;;;;21.28;64.12;98749.28;3477314;28;20056;-73
2021/06/13 02:58:40;;;;;;;15.80;12.32;;;;;;;21.28;64.31;98753.88;3497036;28;20523;-72
2021/06/13 03:00:23;;;;;;;14.80;11.63;;;;;;;21.27;64.08;98753.09;3495556;28;20051;-71
2021/06/13 03:02:06;;;;;;;15.57;11.98;;;;;;;21.26;64.21;98753.34;3493606;28;20533;-72
2021/06/13 03:03:50;;;;;;;14.90;11.07;;;;;;;21.25;64.32;98751.75;3497212;28;20044;-72
2021/06/13 03:05:31;;;;;;;21.55;11.90;;;;;;;21.24;64.36;98748.22;3482205;28;20048;-72
2021/06/13 03:07:17;;;;;;;18.05;12.93;;;;;;;21.25;64.38;98755.28;3491338;28;20044;-72
2021/06/13 03:08:59;;;;;;;17.77;12.77;;;;;;;21.24;64.41;98759.06;3493714;28;20040;-73
2021/06/13 03:10:41;;;;;;;15.82;12.25;;;;;;;21.22;64.01;98761.28;3492745;28;20047;-72
2021/06/13 03:12:22;;;;;;;15.27;12.43;;;;;;;21.24;64.07;98759.06;3479437;28;20053;-72
2021/06/13 03:14:06;;;;;;;16.13;12.00;;;;;;;21.26;64.02;98761.50;3490602;28;20040;-70
2021/06/13 03:15:47;;;;;;;17.50;12.73;;;;;;;21.27;64.24;98763.09;3493362;28;20411;-71
2021/06/13 03:17:29;;;;;;;18.38;12.73;;;;;;;21.28;63.81;98760.09;3479478;28;20215;-72
2021/06/13 03:19:13;;;;;;;17.20;11.35;;;;;;;21.34;64.06;98752.72;3491439;28;20515;-73
2021/06/13 03:20:55;;;;;;;17.48;13.18;;;;;;;21.38;63.76;98753.81;3496099;28;20098;-71
2021/06/13 03:22:38;;;;;;;15.82;11.45;;;;;;;21.43;63.76;98761.09;3481905;28;20099;-73
2021/06/13 03:24:21;;;;;;;14.85;11.65;;;;;;;21.46;63.85;98758.59;3493270;28;20043;-71
2021/06/13 03:26:02;;;;;;;14.85;11.10;;;;;;;21.50;63.60;98764.22;3479226;28;20041;-72
2021/06/13 03:27:46;;;;;;;16.20;11.68;;;;;;;21.54;63.36;98762.56;3463601;28;20045;-71
2021/06/13 03:29:35;;;;;;;14.75;11.88;;;;;;;21.59;63.37;98759.78;3504607;28;20071;-73
2021/06/13 03:31:16;;;;;;;13.07;10.57;;;;;;;21.64;63.27;98772.50;3481462;28;20049;-72
2021/06/13 03:32:57;;;;;;;15.80;11.73;;;;;;;21.68;63.27;98774.31;3462594;28;20045;-72
2021/06/13 03:34:41;;;;;;;16.52;11.35;;;;;;;21.70;63.04;98768.59;3487697;28;20048;-72
2021/06/13 03:36:22;;;;;;;;;;;;;;;21.79;62.95;98769.59;3496996;28;20135;-72
2021/06/13 03:38:03;;;;;;;15.70;11.35;;;;;;;21.80;62.94;98764.97;3496540;28;20367;-72
2021/06/13 03:39:45;;;;;;;14.15;10.45;;;;;;;21.80;62.61;98765.75;3495538;28;20083;-72
2021/06/13 03:41:25;;;;;;;14.10;11.63;;;;;;;21.86;62.61;98758.34;3496228;28;20048;-72
2021/06/13 03:43:06;;;;;;;20.73;12.27;;;;;;;21.91;62.16;98767.22;3495123;28;20147;-72
2021/06/13 03:44:48;;;;;;;14.03;11.97;;;;;;;21.95;62.24;98762.84;3492967;28;20523;-72
2021/06/13 03:46:28;;;;;;;11.35;9.38;;;;;;;22.02;62.25;98767.09;3496306;28;20294;-72
2021/06/13 03:48:10;;;;;;;14.97;10.30;;;;;;;22.07;62.02;98754.28;3496229;28;20119;-72
2021/06/13 03:49:51;;;;;;;14.18;11.25;;;;;;;22.11;61.73;98765.34;3495537;28;20127;-73
2021/06/13 03:51:32;;;;;;;12.15;10.50;;;;;;;22.14;61.74;98759.34;3492721;28;20048;-73
2021/06/13 03:53:13;;;;;;;20.53;11.07;;;;;;;22.16;61.90;98757.13;3496396;28;20059;-72
2021/06/13 03:54:55;;;;;;;15.20;11.20;;;;;;;22.16;61.86;98759.84;3495465;28;20086;-73
2021/06/13 03:56:39;;;;;;;;;;;;;;;22.20;61.63;98764.44;3496743;28;20048;-73
2021/06/13 03:58:27;;;;;;;13.13;10.60;;;;;;;22.19;61.75;98759.28;3496753;28;19960;-71
2021/06/13 04:00:09;;;;;;;14.57;10.05;;;;;;;22.18;61.78;98766.59;3494856;28;20033;-73
2021/06/13 04:01:54;;;;;;;10.50;9.35;;;;;;;22.20;61.71;98767.16;3493806;28;20554;-71
2021/06/13 04:03:35;;;;;;;12.40;9.77;;;;;;;22.18;61.55;98754.94;3493666;28;20052;-73
2021/06/13 04:05:18;;;;;;;13.37;10.67;;;;;;;22.27;61.41;98766.75;3494021;28;20123;-74
2021/06/13 04:07:00;;;;;;;13.32;10.30;;;;;;;22.30;61.30;98763.47;3513500;28;20021;-72
2021/06/13 04:08:41;;;;;;;15.20;11.43;;;;;;;22.34;61.14;98763.69;3513567;28;20052;-72
2021/06/13 04:10:22;;;;;;;14.63;10.95;;;;;;;22.36;61.08;98758.78;3511122;28;20088;-71
2021/06/13 04:12:04;;;;;;;12.45;10.45;;;;;;;22.39;61.04;98766.34;3505741;28;20752;-71
2021/06/13 04:13:45;;;;;;;12.13;10.82;;;;;;;22.43;61.02;98761.91;3496548;28;20145;-72
2021/06/13 04:15:27;;;;;;;13.75;10.85;;;;;;;22.46;60.95;98766.78;3496428;28;20044;-72
2021/06/13 04:17:08;;;;;;;14.32;10.15;;;;;;;22.48;60.72;98761.81;3495942;28;20143;-72
2021/06/13 04:18:50;;;;;;;13.18;10.20;;;;;;;22.52;60.82;98776.44;3495203;28;20696;-72
2021/06/13 04:20:31;;;;;;;15.25;10.95;;;;;;;22.55;60.52;98764.19;3495826;28;20045;-72
2021/06/13 04:22:12;;;;;;;12.33;10.40;;;;;;;22.57;60.61;98768.22;3495200;28;20108;-71
2021/06/13 04:23:56;;;;;;;12.90;9.82;;;;;;;22.60;60.40;98773.03;3478753;28;20146;-73
2021/06/13 04:25:37;;;;;;;14.52;11.05;;;;;;;22.62;60.62;98770.84;3475937;28;20400;-73
2021/06/13 04:27:20;;;;;;;15.60;10.30;;;;;;;22.65;60.30;98770.25;3489833;28;20079;-73
2021/06/13 04:29:00;;;;;;;12.38;9.52;;;;;;;22.69;60.27;98769.66;3496011;28;20044;-73
2021/06/13 04:30:41;;;;;;;14.33;9.43;;;;;;;22.73;60.09;98770.69;3496515;28;20038;-73
2021/06/13 04:32:22;;;;;;;12.03;9.70;;;;;;;22.76;60.34;98776.31;3495336;28;20048;-73
2021/06/13 04:34:03;;;;;;;10.90;9.27;;;;;;;22.79;59.99;98772.19;3492225;28;20493;-73
2021/06/13 04:35:43;;;;;;;11.90;9.37;;;;;;;22.82;59.90;98771.59;3495931;28;20045;-73
2021/06/13 04:37:24;;;;;;;10.67;9.00;;;;;;;22.85;59.88;98771.03;3496115;28;20147;-71
2021/06/13 04:39:05;;;;;;;10.57;8.40;;;;;;;22.86;59.78;98767.19;3495820;28;20094;-72
2021/06/13 04:40:49;;;;;;;13.70;9.32;;;;;;;22.92;59.58;98773.34;3494357;28;20287;-73
2021/06/13 04:42:30;;;;;;;11.67;8.23;;;;;;;22.93;59.52;98774.97;3496080;28;20083;-72
2021/06/13 04:44:11;;;;;;;10.90;8.23;;;;;;;22.97;59.52;98768.66;3495975;28;20037;-72
2021/06/13 04:45:51;;;;;;;10.97;8.53;;;;;;;23.00;59.54;98773.50;3495966;28;20136;-73
2021/06/13 04:47:32;;;;;;;8.63;7.60;;;;;;;23.04;59.28;98774.50;3495731;28;20583;-71
2021/06/13 04:49:13;;;;;;;10.38;8.10;;;;;;;23.06;59.09;98769.56;3495635;28;20076;-74
2021/06/13 04:50:54;;;;;;;10.23;7.87;;;;;;;23.11;59.13;98773.31;3496018;28;20052;-72
2021/06/13 04:52:38;;;;;;;8.93;8.13;;;;;;;23.12;58.88;98777.66;3495630;28;20051;-73
2021/06/13 04:54:21;;;;;;;8.30;7.50;;;;;;;23.16;58.77;98762.34;3496034;28;20048;-72
2021/06/13 04:56:09;;;;;;;9.68;8.10;;;;;;;23.19;58.75;98769.91;3496011;28;20048;-70
2021/06/13 04:58:13;;;;;;;9.00;7.43;;;;;;;23.25;58.54;98764.06;3495796;28;20036;-72
2021/06/13 04:59:54;;;;;;;9.85;7.70;;;;;;;23.26;58.50;98764.88;3496101;28;20076;-72
2021/06/13 05:01:35;;;;;;;8.17;7.10;;;;;;;23.28;58.29;98765.38;3495519;28;20055;-72
2021/06/13 05:03:16;;;;;;;8.33;7.43;;;;;;;23.31;58.16;98759.31;3495323;28;20546;-74
2021/06/13 05:04:57;;;;;;;11.07;7.50;;;;;;;23.35;57.96;98764.97;3495647;28;20090;-70
2021/06/13 05:06:42;;;;;;;10.45;7.90;;;;;;;23.39;58.01;98765.97;3496041;28;20036;-74
2021/06/13 05:08:23;;;;;;;8.98;7.70;;;;;;;23.42;57.81;98768.91;3496173;28;20102;-73
2021/06/13 05:10:04;;;;;;;7.87;7.07;;;;;;;23.44;57.93;98758.53;3495746;28;20028;-72
2021/06/13 05:11:45;;;;;;;7.32;6.63;;;;;;;23.48;57.82;98762.25;3496132;28;20040;-73
2021/06/13 05:13:26;;;;;;;8.83;7.83;;;;;;;23.54;57.57;98762.94;3480956;28;20522;-72
2021/06/13 05:15:07;;;;;;;8.70;6.90;;;;;;;23.58;57.27;98765.88;3493082;28;20096;-73
2021/06/13 05:16:48;;;;;;;7.20;5.95;;;;;;;23.63;57.15;98765.78;3495641;28;20123;-71
2021/06/13 05:18:29;;;;;;;7.63;6.70;;;;;;;23.67;57.20;98767.59;3496847;28;20051;-72
2021/06/13 05:20:11;;;;;;;8.48;6.00;;;;;;;23.72;57.22;98769.41;3498831;28;20074;-72
2021/06/13 05:21:51;;;;;;;6.80;5.70;;;;;;;23.75;56.99;98768.84;3497532;28;20048;-73
2021/06/13 05:23:32;;;;;;;7.33;6.63;;;;;;;23.80;56.80;98768.72;3494981;28;20072;-72
2021/06/13 05:25:13;;;;;;;7.20;5.60;;;;;;;23.86;56.46;98777.59;3497942;28;20102;-73
2021/06/13 05:26:54;;;;;;;6.50;5.78;;;;;;;23.88;56.28;98768.00;3497670;28;20037;-73
2021/06/13 05:28:35;;;;;;;9.20;6.30;;;;;;;23.91;56.04;98772.84;3498414;28;20143;-73
2021/06/13 05:30:16;;;;;;;6.10;5.15;;;;;;;23.96;55.74;98774.66;3497622;28;20476;-73
2021/06/13 05:31:58;;;;;;;14.43;6.22;;;;;;;24.02;55.72;98772.63;3494650;28;20056;-72
2021/06/13 05:33:39;;;;;;;6.18;4.75;;;;;;;24.07;55.81;98776.03;3498233;28;20041;-74
2021/06/13 05:35:21;;;;;;;5.37;4.83;;;;;;;24.10;55.39;98774.59;3512752;28;20588;-73
2021/06/13 05:37:02;;;;;;;5.40;4.70;;;;;;;24.14;55.06;98776.41;3512914;28;20407;-73
2021/06/13 05:38:44;;;;;;;6.05;4.90;;;;;;;24.17;54.86;98775.00;3502500;28;21222;-73
2021/06/13 05:40:25;;;;;;;5.40;4.78;;;;;;;24.21;54.85;98775.97;3497931;28;20064;-72
2021/06/13 05:42:06;;;;;;;5.45;4.72;;;;;;;24.26;54.78;98781.31;3498214;28;20064;-69
2021/06/13 05:43:47;;;;;;;5.87;4.67;;;;;;;24.32;54.66;98782.81;3498305;28;20090;-71
2021/06/13 05:45:31;;;;;;;5.55;5.00;;;;;;;24.36;54.44;98781.06;3498253;28;20048;-72
2021/06/13 05:47:12;;;;;;;5.25;4.75;;;;;;;24.43;54.81;98782.59;3487173;28;20060;-71
2021/06/13 05:48:53;;;;;;;6.27;4.83;;;;;;;24.48;54.38;98772.41;3484022;28;20048;-72
2021/06/13 05:50:34;;;;;;;9.80;4.60;;;;;;;24.55;54.17;98774.69;3490524;28;20370;-73
2021/06/13 05:52:14;;;;;;;6.85;5.20;;;;;;;24.55;54.55;98769.22;3492534;28;20049;-73
2021/06/13 05:53:55;;;;;;;6.03;5.27;;;;;;;24.55;54.43;98769.22;3497912;28;20065;-73
2021/06/13 05:55:36;;;;;;;7.53;5.17;;;;;;;24.60;54.17;98771.81;3498048;28;20202;-73
2021/06/13 05:57:17;;;;;;;6.65;4.78;;;;;;;24.65;53.87;98765.47;3497899;28;20124;-72
2021/06/13 05:58:59;;;;;;;5.43;4.35;;;;;;;24.70;53.96;98766.13;3497799;28;20064;-71
2021/06/13 06:00:41;;;;;;;6.43;4.65;;;;;;;24.75;53.75;98767.94;3497272;28;20044;-71
2021/06/13 06:02:22;;;;;;;6.00;4.40;;;;;;;24.73;53.88;98765.53;3497868;28;20058;-72
2021/06/13 06:04:02;;;;;;;8.40;4.53;;;;;;;24.69;53.62;98772.72;3498002;28;20032;-72
2021/06/13 06:05:43;;;;;;;6.97;4.53;;;;;;;24.61;53.76;98770.72;3495725;28;20048;-72
2021/06/13 06:07:24;;;;;;;6.53;4.47;;;;;;;24.54;53.78;98770.34;3495028;28;20048;-73
2021/06/13 06:09:05;;;;;;;4.60;4.20;;;;;;;24.46;53.80;98765.66;3497548;28;20075;-72
2021/06/13 06:10:46;;;;;;;5.67;3.93;;;;;;;24.40;53.86;98770.38;3493876;28;20025;-72
2021/06/13 06:12:26;;;;;;;4.23;3.83;;;;;;;24.31;53.69;98770.31;3483741;28;20079;-72
2021/06/13 06:14:08;;;;;;;4.30;3.90;;;;;;;24.27;53.87;98774.78;3483571;28;20566;-73
2021/06/13 06:15:49;;;;;;;4.15;3.75;;;;;;;24.21;53.78;98770.53;3483806;28;20568;-73
2021/06/13 06:17:29;;;;;;;3.90;3.50;;;;;;;24.22;53.52;98765.91;3483611;28;20045;-73
2021/06/13 06:19:10;;;;;;;3.67;3.37;;;;;;;24.19;53.50;98772.78;3483533;28;20047;-72
2021/06/13 06:20:51;;;;;;;3.80;3.50;;;;;;;24.18;53.71;98773.88;3468938;28;20049;-73
2021/06/13 06:22:32;;;;;;;5.07;3.50;;;;;;;24.23;53.92;98775.69;3480969;28;20416;-72
2021/06/13 06:24:13;;;;;;;3.53;3.23;;;;;;;24.26;53.78;98777.78;3489201;28;20040;-73
2021/06/13 06:25:54;;;;;;;3.97;3.60;;;;;;;24.29;53.61;98782.63;3495497;28;20575;-73
2021/06/13 06:27:35;;;;;;;3.67;3.37;;;;;;;24.26;53.38;98784.03;3486349;28;20052;-73
2021/06/13 06:29:16;;;;;;;3.42;3.13;;;;;;;24.24;53.36;98783.56;3497571;28;20044;-72
2021/06/13 06:30:57;;;;;;;3.28;2.97;;;;;;;24.20;53.06;98790.72;3496206;28;20036;-73
2021/06/13 06:32:39;;;;;;;4.00;3.60;;;;;;;24.16;53.32;98790.53;3497062;28;20047;-73
2021/06/13 06:34:20;;;;;;;3.42;3.05;;;;;;;24.11;53.26;98787.94;3497394;28;20113;-73
2021/06/13 06:36:01;;;;;;;4.67;3.23;;;;;;;24.08;53.14;98779.53;3497199;28;20565;-72
2021/06/13 06:37:42;;;;;;;7.60;3.80;;;;;;;24.05;53.22;98783.69;3492003;28;20127;-72
2021/06/13 06:39:23;;;;;;;3.30;3.00;;;;;;;24.03;53.38;98785.91;3486091;28;20130;-72
2021/06/13 06:41:04;;;;;;;3.40;3.10;;;;;;;24.11;53.50;98781.66;3485124;28;20036;-72
2021/06/13 06:42:45;;;;;;;5.20;3.40;;;;;;;24.26;53.12;98775.06;3484613;28;20049;-74
2021/06/13 06:44:26;;;;;;;3.60;3.30;;;;;;;24.44;53.30;98778.75;3483484;28;20598;-73
2021/06/13 06:46:08;;;;;;;3.88;3.13;;;;;;;24.62;52.75;98779.72;3483017;28;20412;-73
2021/06/13 06:47:48;;;;;;;3.60;2.90;;;;;;;24.81;52.64;98786.59;3483527;28;20055;-73
2021/06/13 06:49:30;;;;;;;5.13;3.57;;;;;;;24.97;52.18;98788.91;3483158;28;20048;-72
2021/06/13 06:51:11;;;;;;;3.40;3.10;;;;;;;25.12;51.93;98785.81;3483237;28;20175;-73
2021/06/13 06:52:51;;;;;;;3.53;3.23;;;;;;;25.27;51.50;98784.59;3491075;28;20110;-73
2021/06/13 06:54:32;;;;;;;4.50;3.30;;;;;;;25.38;50.93;98783.22;3493994;28;20036;-72
2021/06/13 06:56:13;;;;;;;4.07;2.67;;;;;;;25.42;50.53;98780.66;3496851;28;20073;-73
2021/06/13 06:57:55;;;;;;;6.73;3.90;;;;;;;25.52;50.73;98782.31;3497201;28;20071;-72
2021/06/13 06:59:37;;;;;;;4.28;3.65;;;;;;;25.62;50.46;98782.81;3496756;28;20562;-73
2021/06/13 07:01:17;;;;;;;4.38;2.90;;;;;;;25.77;50.17;98786.25;3497027;28;20130;-73
2021/06/13 07:02:58;;;;;;;5.50;3.33;;;;;;;25.89;49.63;98787.25;3485285;28;20186;-73
2021/06/13 07:04:39;;;;;;;3.13;2.83;;;;;;;26.01;49.42;98780.38;3483370;28;20381;-73
2021/06/13 07:06:20;;;;;;;4.40;3.20;;;;;;;26.09;49.30;98779.56;3483347;28;20143;-73
2021/06/13 07:08:01;;;;;;;3.63;3.33;;;;;;;26.22;49.05;98783.28;3483430;28;20570;-73
2021/06/13 07:09:42;;;;;;;3.23;2.97;;;;;;;26.19;49.34;98790.19;3482792;28;20081;-72
2021/06/13 07:11:23;;;;;;;7.93;3.60;;;;;;;26.05;49.43;98790.34;3497010;28;20123;-71
2021/06/13 07:13:05;;;;;;;3.95;2.88;;;;;;;26.01;49.62;98792.09;3494965;28;20200;-71
2021/06/13 07:14:45;;;;;;;4.38;3.33;;;;;;;26.05;48.92;98793.06;3493262;28;20065;-73
2021/06/13 07:16:26;;;;;;;4.00;3.37;;;;;;;26.14;49.25;98789.53;3493319;28;20040;-72
2021/06/13 07:18:07;;;;;;;8.37;3.50;;;;;;;26.25;48.63;98785.38;3486681;28;20096;-73
2021/06/13 07:19:47;;;;;;;3.90;3.43;;;;;;;26.37;48.28;98791.00;3484108;28;20029;-72
2021/06/13 07:21:28;;;;;;;5.00;3.17;;;;;;;26.50;48.30;98786.50;3483150;28;20072;-72
2021/06/13 07:23:09;;;;;;;4.07;3.00;;;;;;;26.59;48.20;98779.13;3486136;28;20399;-72
2021/06/13 07:24:52;;;;;;;3.78;3.47;;;;;;;26.68;47.54;98776.38;3493225;28;20089;-73
2021/06/13 07:26:35;;;;;;;4.60;3.28;;;;;;;26.79;47.21;98777.66;3485099;28;20083;-74
2021/06/13 07:28:17;;;;;;;4.10;3.15;;;;;;;26.91;46.72;98779.72;3495237;28;20476;-73
2021/06/13 07:29:58;;;;;;;4.30;2.75;;;;;;;27.03;46.85;98777.13;3495989;28;20048;-72
2021/06/13 07:31:39;;;;;;;6.55;2.83;;;;;;;27.14;46.58;98780.31;3498924;28;20044;-75
2021/06/13 07:33:24;;;;;;;4.20;3.45;;;;;;;27.26;46.24;98783.19;3500351;28;20047;-73
2021/06/13 07:35:06;;;;;;;4.05;3.75;;;;;;;27.38;46.02;98788.75;3496263;28;20045;-72
2021/06/13 07:36:47;;;;;;;5.50;3.80;;;;;;;27.46;46.15;98780.84;3497482;28;20043;-71
2021/06/13 07:38:30;;;;;;;6.63;3.75;;;;;;;27.44;46.05;98783.91;3510551;28;20067;-70
2021/06/13 07:40:13;;;;;;;2.97;2.75;;;;;;;27.37;46.10;98787.16;3485631;28;20044;-75
2021/06/13 07:41:55;;;;;;;5.75;3.55;;;;;;;27.39;45.67;98790.38;3491692;28;20098;-72
2021/06/13 07:43:36;;;;;;;6.35;3.42;;;;;;;27.49;45.77;98793.88;3493807;28;20067;-71
2021/06/13 07:45:20;;;;;;;7.70;3.50;;;;;;;27.61;45.64;98791.25;3489490;28;20102;-74
2021/06/13 07:47:03;;;;;;;7.65;3.45;;;;;;;27.75;45.38;98786.34;3480078;28;20128;-72
2021/06/13 07:48:44;;;;;;;5.63;3.30;;;;;;;27.89;45.29;98782.59;3492293;28;20059;-75
2021/06/13 07:50:24;;;;;;;4.67;3.17;;;;;;;28.01;44.86;98779.91;3492452;28;20127;-73
2021/06/13 07:52:06;;;;;;;3.13;2.83;;;;;;;28.15;44.89;98785.16;3495067;28;20044;-73
2021/06/13 07:53:47;;;;;;;4.38;3.28;;;;;;;28.27;44.18;98785.25;3495474;28;20072;-72
2021/06/13 07:55:28;;;;;;;17.30;3.83;;;;;;;28.21;44.42;98781.06;3495142;28;20043;-72
2021/06/13 07:57:09;;;;;;;;;;;;;;;28.22;44.97;98788.97;3495358;28;20514;-73
2021/06/13 07:58:50;;;;;;;4.03;3.40;;;;;;;28.01;44.75;98782.66;3493681;28;19924;-73
2021/06/13 08:00:30;;;;;;;4.07;3.47;;;;;;;27.87;44.57;98787.59;3490826;28;20040;-74